• Join FlightAware (Why Join?)
  • Login
  • US Flag 
 
03:40PM EST


 

Airport Tracker/Info


-or-


 

Live Flight TrackerFlight Track Log ✈ JBU917 ✈ 29-Jun-2013 ✈ KBOS - KJFK

Flight Track Log - Related Links

Times and Time Zones

All times are in EDT time to prevent confusion due to time zone crossing. See the JBU917 flight status page for this flight to view local times or setup timezone preferences in your user account.

Time Position Orientation Groundspeed Altitude Reporting Facility
EDT Latitude Longitude Course Direction KTS MPH feet Rate Location/Type
06:13AM 42.3500 -70.9833 160° South 142 163 1,000  Level KA90
06:14AM 42.3000 -71.0333 216° Southwest 203 234 3,100 1,980 Climbing KA90
06:15AM 42.2072 -71.2678 160° South  Level Estimated
06:15AM 42.2333 -71.0500 190° South 242 278 5,800  Level KA90
06:16AM 42.1552 -71.3547 160° South  Level Estimated
06:17AM 42.1030 -71.4414 166° South  Level Estimated
06:17AM 42.1156 -71.1219 204° Southwest 265 305 11,100  Level Boston Center
06:18AM 42.0509 -71.5279 160° South  Level Estimated
06:18AM 42.0517 -71.1875 217° Southwest 282 325 13,200  Level Boston Center
06:19AM 41.9942 -71.2697 227° Southwest 301 346 15,600 2,580 Climbing Boston Center
06:20AM 41.9306 -71.3631 228° Southwest 326 375 18,400 2,220 Climbing Boston Center
06:21AM 41.8731 -71.4586 231° Southwest 339 390 20,100 1,680 Climbing Boston Center
06:22AM 41.8050 -71.5544 226° Southwest 344 396 21,800 900 Climbing Boston Center
06:23AM 41.7328 -71.6528 225° Southwest 356 410 22,000 60 Climbing Boston Center
06:24AM 41.6647 -71.7536 228° Southwest 362 417 22,000  Level Boston Center
06:25AM 41.5964 -71.8489 226° Southwest 362 417 22,000  Level Boston Center
06:26AM 41.5283 -71.9519 229° Southwest 367 422 22,000  Level Boston Center
06:27AM 41.4619 -72.0467 227° Southwest 367 422 22,000  Level Boston Center
06:28AM 41.3933 -72.1467 228° Southwest 367 422 22,000 -60 Level Boston Center
06:29AM 41.3228 -72.2439 226° Southwest 367 422 21,900 -1,020 Descending Boston Center
06:30AM 41.2542 -72.3408 227° Southwest 367 422 20,000 -1,800 Descending Boston Center
06:31AM 41.1958 -72.4208 226° Southwest 361 415 18,400 -1,860 Descending Boston Center
06:32AM 41.1353 -72.5089 228° Southwest 344 396 16,300 -1,920 Descending Boston Center
06:33AM 41.0747 -72.5942 227° Southwest 334 384 14,600 -1,680 Descending Boston Center
06:34AM 41.0183 -72.6767 228° Southwest 317 365 13,000 -1,140 Descending Boston Center
06:35AM 40.9333 -72.7833 223° Southwest 257 296 12,000 -480 Descending New York TRACON
06:36AM 40.8833 -72.8500 225° Southwest 255 293 11,900 -600 Descending New York TRACON
06:37AM 40.8333 -72.8833 207° Southwest 259 298 11,000 -1,080 Descending New York TRACON
06:38AM 40.7667 -72.9500 217° Southwest 260 299 9,900 -1,020 Descending New York TRACON
06:39AM 40.7500 -73.0167 252° West 258 297 9,000 -1,020 Descending New York TRACON
06:40AM 40.7333 -73.1167 258° West 263 303 8,000 -1,020 Descending New York TRACON
06:41AM 40.7167 -73.2000 255° West 259 298 7,100 -1,020 Descending New York TRACON
06:42AM 40.6833 -73.2667 237° Southwest 256 295 6,100 -1,020 Descending New York TRACON
06:43AM 40.6333 -73.3500 232° Southwest 249 287 5,100 -1,020 Descending New York TRACON
06:44AM 40.6167 -73.4333 255° West 249 287 4,100 -1,020 Descending New York TRACON
06:45AM 40.6000 -73.4833 246° West 236 272 3,300 -660 Descending New York TRACON
06:46AM 40.5667 -73.5667 242° Southwest 194 223 3,000 -660 Descending New York TRACON
06:47AM 40.5833 -73.6167 294° West 180 207 2,000 -720 Descending New York TRACON
06:48AM 40.6000 -73.6667 294° West 160 184 1,600 -600 Descending New York TRACON
06:49AM 40.6167 -73.7167 294° West 139 160 800 -840 Descending New York TRACON
06:51AM 40.6333 -73.7667 270° West  Level FlightAware Approximate
06:58AM 40.6398 -73.7789 270° West  Level Estimated
06:59AM 40.6398 -73.7789 270° West  Level Estimated